sensor_id;sensor_type;location;lat;lon;timestamp;P1;durP1;ratioP1;P2;durP2;ratioP2
61570;SDS011;47463;49.884;10.010;2023-04-06T00:00:00;12.7;;;7;;
61570;SDS011;47463;49.884;10.010;2023-04-06T00:05:00;12.7;;;7;;
61570;SDS011;47463;49.884;10.010;2023-04-06T00:10:00;11.2;;;7.2;;
61570;SDS011;47463;49.884;10.010;2023-04-06T00:15:00;11.2;;;6.8;;
61570;SDS011;47463;49.884;10.010;2023-04-06T00:20:00;13.4;;;7;;
61570;SDS011;47463;49.884;10.010;2023-04-06T00:25:00;11.9;;;6.8;;
61570;SDS011;47463;49.884;10.010;2023-04-06T00:30:00;13.9;;;6.5;;
61570;SDS011;47463;49.884;10.010;2023-04-06T00:35:01;13.9;;;6.5;;
61570;SDS011;47463;49.884;10.010;2023-04-06T00:40:00;11.1;;;6.6;;
61570;SDS011;47463;49.884;10.010;2023-04-06T00:45:00;10.9;;;6.6;;
61570;SDS011;47463;49.884;10.010;2023-04-06T00:50:00;12.4;;;7;;
61570;SDS011;47463;49.884;10.010;2023-04-06T00:55:00;11;;;6.9;;
61570;SDS011;47463;49.884;10.010;2023-04-06T01:00:00;11.5;;;6.9;;
61570;SDS011;47463;49.884;10.010;2023-04-06T01:05:00;11.5;;;6.9;;
61570;SDS011;47463;49.884;10.010;2023-04-06T01:10:00;11.8;;;7;;
61570;SDS011;47463;49.884;10.010;2023-04-06T01:15:00;9.3;;;6.3;;
61570;SDS011;47463;49.884;10.010;2023-04-06T01:20:00;13.1;;;6.9;;
61570;SDS011;47463;49.884;10.010;2023-04-06T01:25:00;14.3;;;7.1;;
61570;SDS011;47463;49.884;10.010;2023-04-06T01:30:00;12.4;;;6.7;;
61570;SDS011;47463;49.884;10.010;2023-04-06T01:35:00;12.4;;;6.7;;
61570;SDS011;47463;49.884;10.010;2023-04-06T01:40:00;12.1;;;6.9;;
61570;SDS011;47463;49.884;10.010;2023-04-06T01:45:00;13.2;;;7;;
61570;SDS011;47463;49.884;10.010;2023-04-06T01:50:00;11.8;;;6.4;;
61570;SDS011;47463;49.884;10.010;2023-04-06T01:55:00;11.3;;;7.2;;
61570;SDS011;47463;49.884;10.010;2023-04-06T02:00:00;11.7;;;6.9;;
61570;SDS011;47463;49.884;10.010;2023-04-06T02:05:00;11.7;;;6.9;;
61570;SDS011;47463;49.884;10.010;2023-04-06T02:10:00;11.7;;;7.1;;
61570;SDS011;47463;49.884;10.010;2023-04-06T02:15:00;11.1;;;7;;
61570;SDS011;47463;49.884;10.010;2023-04-06T02:20:00;17.2;;;7.7;;
61570;SDS011;47463;49.884;10.010;2023-04-06T02:25:00;14.5;;;8.3;;
61570;SDS011;47463;49.884;10.010;2023-04-06T02:30:00;14.6;;;8.6;;
61570;SDS011;47463;49.884;10.010;2023-04-06T02:35:00;14.6;;;8.6;;
61570;SDS011;47463;49.884;10.010;2023-04-06T02:40:00;18.7;;;9.6;;
61570;SDS011;47463;49.884;10.010;2023-04-06T02:45:00;17.5;;;8.8;;
61570;SDS011;47463;49.884;10.010;2023-04-06T02:50:00;18.8;;;9.7;;
61570;SDS011;47463;49.884;10.010;2023-04-06T02:55:00;17.3;;;10;;
61570;SDS011;47463;49.884;10.010;2023-04-06T03:00:00;16.9;;;9.8;;
61570;SDS011;47463;49.884;10.010;2023-04-06T03:05:00;16.9;;;9.8;;
61570;SDS011;47463;49.884;10.010;2023-04-06T03:10:00;19.1;;;10.5;;
61570;SDS011;47463;49.884;10.010;2023-04-06T03:15:00;17.8;;;10.6;;
61570;SDS011;47463;49.884;10.010;2023-04-06T03:20:00;17.6;;;11.3;;
61570;SDS011;47463;49.884;10.010;2023-04-06T03:25:00;19.1;;;11;;
61570;SDS011;47463;49.884;10.010;2023-04-06T03:30:00;19.5;;;10.7;;
61570;SDS011;47463;49.884;10.010;2023-04-06T03:35:00;19.5;;;10.7;;
61570;SDS011;47463;49.884;10.010;2023-04-06T03:40:00;18.9;;;10.2;;
61570;SDS011;47463;49.884;10.010;2023-04-06T03:45:00;20.3;;;10.5;;
61570;SDS011;47463;49.884;10.010;2023-04-06T03:50:00;20.1;;;11.1;;
61570;SDS011;47463;49.884;10.010;2023-04-06T03:55:00;20.1;;;11.3;;
61570;SDS011;47463;49.884;10.010;2023-04-06T04:00:00;19.7;;;11.3;;
61570;SDS011;47463;49.884;10.010;2023-04-06T04:05:00;19.7;;;11.3;;
61570;SDS011;47463;49.884;10.010;2023-04-06T04:10:00;17.3;;;10.3;;
61570;SDS011;47463;49.884;10.010;2023-04-06T04:15:00;20.8;;;11.1;;
61570;SDS011;47463;49.884;10.010;2023-04-06T04:20:00;19;;;11;;
61570;SDS011;47463;49.884;10.010;2023-04-06T04:25:00;19.9;;;11.5;;
61570;SDS011;47463;49.884;10.010;2023-04-06T04:30:00;19.3;;;10.9;;
61570;SDS011;47463;49.884;10.010;2023-04-06T04:35:00;19.3;;;10.9;;
61570;SDS011;47463;49.884;10.010;2023-04-06T04:40:00;20.3;;;12.1;;
61570;SDS011;47463;49.884;10.010;2023-04-06T04:45:00;17.6;;;10.6;;
61570;SDS011;47463;49.884;10.010;2023-04-06T04:50:00;20.2;;;11.7;;
61570;SDS011;47463;49.884;10.010;2023-04-06T04:55:00;19.5;;;10.7;;
61570;SDS011;47463;49.884;10.010;2023-04-06T05:00:00;17.1;;;10.9;;
61570;SDS011;47463;49.884;10.010;2023-04-06T05:05:00;17.1;;;10.9;;
61570;SDS011;47463;49.884;10.010;2023-04-06T05:10:00;18.1;;;10.7;;
61570;SDS011;47463;49.884;10.010;2023-04-06T05:15:00;20.8;;;11.2;;
61570;SDS011;47463;49.884;10.010;2023-04-06T05:20:00;17.3;;;10.7;;
61570;SDS011;47463;49.884;10.010;2023-04-06T05:25:01;17.8;;;11;;
61570;SDS011;47463;49.884;10.010;2023-04-06T05:30:00;19;;;10.4;;
61570;SDS011;47463;49.884;10.010;2023-04-06T05:35:00;19;;;10.4;;
61570;SDS011;47463;49.884;10.010;2023-04-06T05:40:00;18;;;10.9;;
61570;SDS011;47463;49.884;10.010;2023-04-06T05:45:00;16.5;;;10.1;;
61570;SDS011;47463;49.884;10.010;2023-04-06T05:50:00;16.2;;;9.9;;
61570;SDS011;47463;49.884;10.010;2023-04-06T05:55:00;15.6;;;9.7;;
61570;SDS011;47463;49.884;10.010;2023-04-06T06:00:00;14.4;;;8.7;;
61570;SDS011;47463;49.884;10.010;2023-04-06T06:05:00;14.4;;;8.7;;
61570;SDS011;47463;49.884;10.010;2023-04-06T06:10:00;18.5;;;10;;
61570;SDS011;47463;49.884;10.010;2023-04-06T06:15:00;12.4;;;9.4;;
61570;SDS011;47463;49.884;10.010;2023-04-06T06:20:00;14.1;;;9.5;;
61570;SDS011;47463;49.884;10.010;2023-04-06T06:25:00;13.4;;;9;;
61570;SDS011;47463;49.884;10.010;2023-04-06T06:30:00;13.6;;;9.8;;
61570;SDS011;47463;49.884;10.010;2023-04-06T06:35:00;13.6;;;9.8;;
61570;SDS011;47463;49.884;10.010;2023-04-06T06:40:00;14.3;;;9.9;;
61570;SDS011;47463;49.884;10.010;2023-04-06T06:45:00;14.2;;;8.6;;
61570;SDS011;47463;49.884;10.010;2023-04-06T06:50:00;14.9;;;9.1;;
61570;SDS011;47463;49.884;10.010;2023-04-06T06:55:00;18.2;;;9.9;;
61570;SDS011;47463;49.884;10.010;2023-04-06T07:00:00;13.1;;;9.3;;
61570;SDS011;47463;49.884;10.010;2023-04-06T07:05:00;13.1;;;9.3;;
61570;SDS011;47463;49.884;10.010;2023-04-06T07:10:00;12;;;9.4;;
61570;SDS011;47463;49.884;10.010;2023-04-06T07:15:00;14;;;9.4;;
61570;SDS011;47463;49.884;10.010;2023-04-06T07:20:00;13.5;;;9.9;;
61570;SDS011;47463;49.884;10.010;2023-04-06T07:25:00;14.6;;;10.3;;
61570;SDS011;47463;49.884;10.010;2023-04-06T07:30:00;15.5;;;10;;
61570;SDS011;47463;49.884;10.010;2023-04-06T07:35:00;15.5;;;10;;
61570;SDS011;47463;49.884;10.010;2023-04-06T07:40:00;15.4;;;10.2;;
61570;SDS011;47463;49.884;10.010;2023-04-06T07:45:00;14.9;;;10.7;;
61570;SDS011;47463;49.884;10.010;2023-04-06T07:50:00;15.4;;;10.7;;
61570;SDS011;47463;49.884;10.010;2023-04-06T07:55:00;17.2;;;11.3;;
61570;SDS011;47463;49.884;10.010;2023-04-06T08:00:00;13.5;;;10.7;;
61570;SDS011;47463;49.884;10.010;2023-04-06T08:05:00;13.5;;;10.7;;
61570;SDS011;47463;49.884;10.010;2023-04-06T08:10:00;14.3;;;10.5;;
61570;SDS011;47463;49.884;10.010;2023-04-06T08:15:00;15;;;10.6;;
61570;SDS011;47463;49.884;10.010;2023-04-06T08:20:00;17.8;;;11;;
61570;SDS011;47463;49.884;10.010;2023-04-06T08:25:00;15.1;;;10.9;;
61570;SDS011;47463;49.884;10.010;2023-04-06T08:30:00;17.4;;;11.4;;
61570;SDS011;47463;49.884;10.010;2023-04-06T08:35:00;17.4;;;11.4;;
61570;SDS011;47463;49.884;10.010;2023-04-06T08:40:00;16;;;11.7;;
61570;SDS011;47463;49.884;10.010;2023-04-06T08:45:00;15.7;;;12.1;;
61570;SDS011;47463;49.884;10.010;2023-04-06T08:50:00;16.9;;;12.1;;
61570;SDS011;47463;49.884;10.010;2023-04-06T08:55:00;16.1;;;12.5;;
61570;SDS011;47463;49.884;10.010;2023-04-06T09:00:00;16.5;;;11.7;;
61570;SDS011;47463;49.884;10.010;2023-04-06T09:05:00;16.5;;;11.7;;
61570;SDS011;47463;49.884;10.010;2023-04-06T09:10:00;16.3;;;12;;
61570;SDS011;47463;49.884;10.010;2023-04-06T09:15:00;18.3;;;12.9;;
61570;SDS011;47463;49.884;10.010;2023-04-06T09:20:00;16.4;;;12.3;;
61570;SDS011;47463;49.884;10.010;2023-04-06T09:25:00;16.1;;;12;;
61570;SDS011;47463;49.884;10.010;2023-04-06T09:30:03;15.7;;;12.3;;
61570;SDS011;47463;49.884;10.010;2023-04-06T09:35:07;15.7;;;12.3;;
61570;SDS011;47463;49.884;10.010;2023-04-06T09:40:02;17.5;;;12.4;;
61570;SDS011;47463;49.884;10.010;2023-04-06T09:45:00;17.2;;;12.7;;
61570;SDS011;47463;49.884;10.010;2023-04-06T09:50:00;17.6;;;12;;
61570;SDS011;47463;49.884;10.010;2023-04-06T09:55:01;21;;;13.3;;
61570;SDS011;47463;49.884;10.010;2023-04-06T10:00:01;17.4;;;12.9;;
61570;SDS011;47463;49.884;10.010;2023-04-06T10:05:01;17.4;;;12.9;;
61570;SDS011;47463;49.884;10.010;2023-04-06T10:10:00;16.4;;;11.8;;
61570;SDS011;47463;49.884;10.010;2023-04-06T10:15:00;16.4;;;12.2;;
61570;SDS011;47463;49.884;10.010;2023-04-06T10:20:02;18.1;;;12.6;;
61570;SDS011;47463;49.884;10.010;2023-04-06T10:25:00;18.4;;;11.9;;
61570;SDS011;47463;49.884;10.010;2023-04-06T10:30:01;15.1;;;10.7;;
61570;SDS011;47463;49.884;10.010;2023-04-06T10:35:04;15.1;;;10.7;;
61570;SDS011;47463;49.884;10.010;2023-04-06T10:40:00;16.2;;;10.9;;
61570;SDS011;47463;49.884;10.010;2023-04-06T10:45:00;16.8;;;10.1;;
61570;SDS011;47463;49.884;10.010;2023-04-06T10:50:00;14.9;;;10.9;;
61570;SDS011;47463;49.884;10.010;2023-04-06T10:55:00;16.1;;;10.3;;
61570;SDS011;47463;49.884;10.010;2023-04-06T11:00:00;14.7;;;10.1;;
61570;SDS011;47463;49.884;10.010;2023-04-06T11:05:00;14.7;;;10.1;;
61570;SDS011;47463;49.884;10.010;2023-04-06T11:10:00;19.7;;;11.6;;
61570;SDS011;47463;49.884;10.010;2023-04-06T11:15:00;18;;;12;;
61570;SDS011;47463;49.884;10.010;2023-04-06T11:20:00;17.7;;;11.5;;
61570;SDS011;47463;49.884;10.010;2023-04-06T11:25:07;18.3;;;11.5;;
61570;SDS011;47463;49.884;10.010;2023-04-06T11:30:00;18.3;;;11.6;;
61570;SDS011;47463;49.884;10.010;2023-04-06T11:35:00;18.3;;;11.6;;
61570;SDS011;47463;49.884;10.010;2023-04-06T11:40:00;16.7;;;11.3;;
61570;SDS011;47463;49.884;10.010;2023-04-06T11:45:00;15.7;;;11.5;;
61570;SDS011;47463;49.884;10.010;2023-04-06T11:50:05;17.3;;;11.4;;
61570;SDS011;47463;49.884;10.010;2023-04-06T11:55:09;15.2;;;11.4;;
61570;SDS011;47463;49.884;10.010;2023-04-06T12:00:00;17;;;10.8;;
61570;SDS011;47463;49.884;10.010;2023-04-06T12:05:00;17;;;10.8;;
61570;SDS011;47463;49.884;10.010;2023-04-06T12:10:00;17.2;;;12.1;;
61570;SDS011;47463;49.884;10.010;2023-04-06T12:15:00;30.5;;;15;;
61570;SDS011;47463;49.884;10.010;2023-04-06T12:20:00;16.5;;;10.7;;
61570;SDS011;47463;49.884;10.010;2023-04-06T12:25:00;21.5;;;11.4;;
61570;SDS011;47463;49.884;10.010;2023-04-06T12:30:00;15.7;;;10.8;;
61570;SDS011;47463;49.884;10.010;2023-04-06T12:35:00;15.7;;;10.8;;
61570;SDS011;47463;49.884;10.010;2023-04-06T12:40:00;15.8;;;10.5;;
61570;SDS011;47463;49.884;10.010;2023-04-06T12:45:00;16.4;;;9.8;;
61570;SDS011;47463;49.884;10.010;2023-04-06T12:50:00;15.3;;;10.3;;
61570;SDS011;47463;49.884;10.010;2023-04-06T12:55:00;14.8;;;10.6;;
61570;SDS011;47463;49.884;10.010;2023-04-06T13:00:00;13.7;;;9;;
61570;SDS011;47463;49.884;10.010;2023-04-06T13:05:00;13.7;;;9;;
61570;SDS011;47463;49.884;10.010;2023-04-06T13:10:00;16.9;;;9.8;;
61570;SDS011;47463;49.884;10.010;2023-04-06T13:15:00;13.8;;;9.8;;
61570;SDS011;47463;49.884;10.010;2023-04-06T13:20:00;15.7;;;11.1;;
61570;SDS011;47463;49.884;10.010;2023-04-06T13:25:00;15.3;;;10;;
61570;SDS011;47463;49.884;10.010;2023-04-06T13:30:00;11.9;;;8.2;;
61570;SDS011;47463;49.884;10.010;2023-04-06T13:35:00;11.9;;;8.2;;
61570;SDS011;47463;49.884;10.010;2023-04-06T13:40:00;10.1;;;7.8;;
61570;SDS011;47463;49.884;10.010;2023-04-06T13:45:00;11.3;;;7.9;;
61570;SDS011;47463;49.884;10.010;2023-04-06T13:50:00;14.2;;;9.7;;
61570;SDS011;47463;49.884;10.010;2023-04-06T13:55:00;11;;;7.8;;
61570;SDS011;47463;49.884;10.010;2023-04-06T14:00:00;11.1;;;8.4;;
61570;SDS011;47463;49.884;10.010;2023-04-06T14:05:00;11.1;;;8.4;;
61570;SDS011;47463;49.884;10.010;2023-04-06T14:10:00;9.9;;;7.8;;
61570;SDS011;47463;49.884;10.010;2023-04-06T14:15:00;11.9;;;8;;
61570;SDS011;47463;49.884;10.010;2023-04-06T14:20:00;12.3;;;8.9;;
61570;SDS011;47463;49.884;10.010;2023-04-06T14:25:00;13.7;;;8.8;;
61570;SDS011;47463;49.884;10.010;2023-04-06T14:30:00;13.6;;;9.4;;
61570;SDS011;47463;49.884;10.010;2023-04-06T14:35:00;13.6;;;9.4;;
61570;SDS011;47463;49.884;10.010;2023-04-06T14:40:00;14.2;;;9.3;;
61570;SDS011;47463;49.884;10.010;2023-04-06T14:45:00;10.8;;;8.9;;
61570;SDS011;47463;49.884;10.010;2023-04-06T14:50:00;12.2;;;8.7;;
61570;SDS011;47463;49.884;10.010;2023-04-06T14:55:00;13.4;;;9.2;;
61570;SDS011;47463;49.884;10.010;2023-04-06T15:00:00;14.6;;;8.9;;
61570;SDS011;47463;49.884;10.010;2023-04-06T15:05:00;14.6;;;8.9;;
61570;SDS011;47463;49.884;10.010;2023-04-06T15:10:00;18.3;;;9.5;;
61570;SDS011;47463;49.884;10.010;2023-04-06T15:15:00;13.3;;;9.5;;
61570;SDS011;47463;49.884;10.010;2023-04-06T15:20:00;12.3;;;9.3;;
61570;SDS011;47463;49.884;10.010;2023-04-06T15:25:00;11.6;;;8.7;;
61570;SDS011;47463;49.884;10.010;2023-04-06T15:30:00;11.3;;;9;;
61570;SDS011;47463;49.884;10.010;2023-04-06T15:35:00;11.3;;;9;;
61570;SDS011;47463;49.884;10.010;2023-04-06T15:40:00;12.4;;;8.1;;
61570;SDS011;47463;49.884;10.010;2023-04-06T15:45:00;18;;;9.9;;
61570;SDS011;47463;49.884;10.010;2023-04-06T15:50:00;12.8;;;9.1;;
61570;SDS011;47463;49.884;10.010;2023-04-06T15:55:00;13;;;8.5;;
61570;SDS011;47463;49.884;10.010;2023-04-06T16:00:00;13.4;;;8.7;;
61570;SDS011;47463;49.884;10.010;2023-04-06T16:05:00;13.4;;;8.7;;
61570;SDS011;47463;49.884;10.010;2023-04-06T16:10:00;15.5;;;9.4;;
61570;SDS011;47463;49.884;10.010;2023-04-06T16:15:00;14.3;;;9.9;;
61570;SDS011;47463;49.884;10.010;2023-04-06T16:20:00;14.3;;;9.8;;
61570;SDS011;47463;49.884;10.010;2023-04-06T16:25:00;14.7;;;9.3;;
61570;SDS011;47463;49.884;10.010;2023-04-06T16:30:00;14.4;;;10;;
61570;SDS011;47463;49.884;10.010;2023-04-06T16:35:00;14.4;;;10;;
61570;SDS011;47463;49.884;10.010;2023-04-06T16:40:00;14.6;;;9.7;;
61570;SDS011;47463;49.884;10.010;2023-04-06T16:45:00;17.9;;;10.3;;
61570;SDS011;47463;49.884;10.010;2023-04-06T16:50:00;14.2;;;9.6;;
61570;SDS011;47463;49.884;10.010;2023-04-06T16:55:00;14.5;;;9.3;;
61570;SDS011;47463;49.884;10.010;2023-04-06T17:00:00;15.8;;;9.1;;
61570;SDS011;47463;49.884;10.010;2023-04-06T17:05:00;15.8;;;9.1;;
61570;SDS011;47463;49.884;10.010;2023-04-06T17:10:00;14.2;;;9.4;;
61570;SDS011;47463;49.884;10.010;2023-04-06T17:15:00;15.3;;;9.5;;
61570;SDS011;47463;49.884;10.010;2023-04-06T17:20:00;15.9;;;9.7;;
61570;SDS011;47463;49.884;10.010;2023-04-06T17:25:00;14.9;;;9.5;;
61570;SDS011;47463;49.884;10.010;2023-04-06T17:30:00;13.4;;;9.4;;
61570;SDS011;47463;49.884;10.010;2023-04-06T17:35:00;13.4;;;9.4;;
61570;SDS011;47463;49.884;10.010;2023-04-06T17:40:00;13.4;;;8.8;;
61570;SDS011;47463;49.884;10.010;2023-04-06T17:45:00;12.5;;;8.6;;
61570;SDS011;47463;49.884;10.010;2023-04-06T17:50:00;12.4;;;8.6;;
61570;SDS011;47463;49.884;10.010;2023-04-06T17:55:00;13.5;;;8.8;;
61570;SDS011;47463;49.884;10.010;2023-04-06T18:00:00;12.9;;;8.6;;
61570;SDS011;47463;49.884;10.010;2023-04-06T18:05:00;12.9;;;8.6;;
61570;SDS011;47463;49.884;10.010;2023-04-06T18:10:00;13.5;;;8.5;;
61570;SDS011;47463;49.884;10.010;2023-04-06T18:15:00;15.3;;;9.6;;
61570;SDS011;47463;49.884;10.010;2023-04-06T18:20:00;13.3;;;9.3;;
61570;SDS011;47463;49.884;10.010;2023-04-06T18:25:00;12.8;;;9.1;;
61570;SDS011;47463;49.884;10.010;2023-04-06T18:30:00;12.5;;;8.4;;
61570;SDS011;47463;49.884;10.010;2023-04-06T18:35:00;12.5;;;8.4;;
61570;SDS011;47463;49.884;10.010;2023-04-06T18:40:00;17.2;;;9.8;;
61570;SDS011;47463;49.884;10.010;2023-04-06T18:45:00;15.5;;;9.2;;
61570;SDS011;47463;49.884;10.010;2023-04-06T18:50:00;15.6;;;9.4;;
61570;SDS011;47463;49.884;10.010;2023-04-06T18:55:00;16.7;;;9;;
61570;SDS011;47463;49.884;10.010;2023-04-06T19:00:01;13.9;;;9.1;;
61570;SDS011;47463;49.884;10.010;2023-04-06T19:05:00;13.9;;;9.1;;
61570;SDS011;47463;49.884;10.010;2023-04-06T19:10:00;14.9;;;8.7;;
61570;SDS011;47463;49.884;10.010;2023-04-06T19:15:00;13.1;;;8.4;;
61570;SDS011;47463;49.884;10.010;2023-04-06T19:20:00;12.5;;;8.8;;
61570;SDS011;47463;49.884;10.010;2023-04-06T19:25:00;14.4;;;8.6;;
61570;SDS011;47463;49.884;10.010;2023-04-06T19:30:00;13.2;;;8.6;;
61570;SDS011;47463;49.884;10.010;2023-04-06T19:35:00;13.2;;;8.6;;
61570;SDS011;47463;49.884;10.010;2023-04-06T19:40:00;15.1;;;8.7;;
61570;SDS011;47463;49.884;10.010;2023-04-06T19:45:00;15.6;;;8.3;;
61570;SDS011;47463;49.884;10.010;2023-04-06T19:50:00;14.6;;;8.4;;
61570;SDS011;47463;49.884;10.010;2023-04-06T19:55:00;12.8;;;8.6;;
61570;SDS011;47463;49.884;10.010;2023-04-06T20:00:00;14.9;;;9.5;;
61570;SDS011;47463;49.884;10.010;2023-04-06T20:05:00;14.9;;;9.5;;
61570;SDS011;47463;49.884;10.010;2023-04-06T20:10:00;15.3;;;8.9;;
61570;SDS011;47463;49.884;10.010;2023-04-06T20:15:00;14.6;;;8.9;;
61570;SDS011;47463;49.884;10.010;2023-04-06T20:20:00;14.7;;;9.9;;
61570;SDS011;47463;49.884;10.010;2023-04-06T20:25:00;12.2;;;8.6;;
61570;SDS011;47463;49.884;10.010;2023-04-06T20:30:00;17.2;;;9.5;;
61570;SDS011;47463;49.884;10.010;2023-04-06T20:35:00;17.2;;;9.5;;
61570;SDS011;47463;49.884;10.010;2023-04-06T20:40:00;15.3;;;9.5;;
61570;SDS011;47463;49.884;10.010;2023-04-06T20:45:00;16.5;;;9.5;;
61570;SDS011;47463;49.884;10.010;2023-04-06T20:50:00;16.7;;;9.4;;
61570;SDS011;47463;49.884;10.010;2023-04-06T20:55:00;15.6;;;9.5;;
61570;SDS011;47463;49.884;10.010;2023-04-06T21:00:00;16.3;;;8.9;;
61570;SDS011;47463;49.884;10.010;2023-04-06T21:05:00;16.3;;;8.9;;
61570;SDS011;47463;49.884;10.010;2023-04-06T21:10:00;14.8;;;9;;
61570;SDS011;47463;49.884;10.010;2023-04-06T21:15:00;15.9;;;9.4;;
61570;SDS011;47463;49.884;10.010;2023-04-06T21:20:00;16.2;;;9.7;;
61570;SDS011;47463;49.884;10.010;2023-04-06T21:25:00;16.2;;;9.5;;
61570;SDS011;47463;49.884;10.010;2023-04-06T21:30:00;14.3;;;8.2;;
61570;SDS011;47463;49.884;10.010;2023-04-06T21:35:00;14.3;;;8.2;;
61570;SDS011;47463;49.884;10.010;2023-04-06T21:40:00;13.4;;;6.8;;
61570;SDS011;47463;49.884;10.010;2023-04-06T21:45:00;10.2;;;5.8;;
61570;SDS011;47463;49.884;10.010;2023-04-06T21:50:00;8.6;;;5.5;;
61570;SDS011;47463;49.884;10.010;2023-04-06T21:55:00;8.6;;;5;;
61570;SDS011;47463;49.884;10.010;2023-04-06T22:00:00;7.6;;;4.6;;
61570;SDS011;47463;49.884;10.010;2023-04-06T22:05:00;7.6;;;4.6;;
61570;SDS011;47463;49.884;10.010;2023-04-06T22:10:00;7.9;;;4.2;;
61570;SDS011;47463;49.884;10.010;2023-04-06T22:15:00;6.1;;;4;;
61570;SDS011;47463;49.884;10.010;2023-04-06T22:20:00;5.3;;;3.8;;
61570;SDS011;47463;49.884;10.010;2023-04-06T22:25:00;6.6;;;3.6;;
61570;SDS011;47463;49.884;10.010;2023-04-06T22:30:00;4.5;;;3.1;;
61570;SDS011;47463;49.884;10.010;2023-04-06T22:35:00;4.5;;;3.1;;
61570;SDS011;47463;49.884;10.010;2023-04-06T22:40:00;5.1;;;3.3;;
61570;SDS011;47463;49.884;10.010;2023-04-06T22:45:00;4.3;;;3.1;;
61570;SDS011;47463;49.884;10.010;2023-04-06T22:50:00;6;;;3.5;;
61570;SDS011;47463;49.884;10.010;2023-04-06T22:55:00;4.9;;;3.3;;
61570;SDS011;47463;49.884;10.010;2023-04-06T23:00:00;6.7;;;4.4;;
61570;SDS011;47463;49.884;10.010;2023-04-06T23:05:00;6.7;;;4.4;;
61570;SDS011;47463;49.884;10.010;2023-04-06T23:10:00;6.5;;;4;;
61570;SDS011;47463;49.884;10.010;2023-04-06T23:15:00;8.1;;;4.4;;
61570;SDS011;47463;49.884;10.010;2023-04-06T23:20:00;8.4;;;4.4;;
61570;SDS011;47463;49.884;10.010;2023-04-06T23:25:00;8.4;;;4.8;;
61570;SDS011;47463;49.884;10.010;2023-04-06T23:30:00;7.2;;;4.4;;
61570;SDS011;47463;49.884;10.010;2023-04-06T23:35:00;7.2;;;4.4;;
61570;SDS011;47463;49.884;10.010;2023-04-06T23:40:00;7.5;;;5.1;;
61570;SDS011;47463;49.884;10.010;2023-04-06T23:45:01;6.5;;;4.9;;
61570;SDS011;47463;49.884;10.010;2023-04-06T23:50:00;9;;;5.1;;
61570;SDS011;47463;49.884;10.010;2023-04-06T23:55:00;8.6;;;5.6;;
